Data for 04/15/2017

Time Sea-Level Adjusted Pressure Absolute Pressure Temperature Relative Humidity Dew Point   
(mb) (inHg) (mb) (inHg) (C) (F) (%) (C) (F)
00:05 1017 30.03 846 24.98 -0.8 30.5 94 -1.6 29.1
00:10 1017 30.03 846 24.98 -0.8 30.6 94 -1.6 29.2
00:15 1017 30.03 847 25.01 -0.8 30.6 94 -1.5 29.2
00:20 1018 30.06 847 25.01 -0.8 30.5 94 -1.6 29
00:25 1018 30.06 847 25.01 -1 30.3 95 -1.7 28.9
00:30 1018 30.06 847 25.01 -1 30.1 95 -1.8 28.8
00:35 1018 30.06 847 25.01 -1.1 30 94 -1.9 28.6
00:40 1018 30.06 847 25.01 -1.1 30 95 -1.9 28.6
00:45 1018 30.06 847 25.01 -1.1 29.9 95 -1.9 28.6
00:50 1018 30.06 847 25.01 -1.1 30 95 -1.9 28.7
00:55 1018 30.06 847 25.01 -1.1 30 95 -1.9 28.6
01:00 1018 30.06 847 25.01 -1.2 29.9 95 -1.9 28.5
01:05 1018 30.06 847 25.01 -1.2 29.9 95 -1.9 28.6
01:10 1018 30.06 848 25.04 -1.1 29.9 95 -1.9 28.6
01:15 1018 30.06 848 25.04 -1.1 30 95 -1.8 28.7
01:20 1018 30.06 848 25.04 -1.1 30 95 -1.9 28.6
01:25 1018 30.06 848 25.04 -1.1 30 95 -1.8 28.7
01:30 1019 30.09 848 25.04 -1.1 30 95 -1.8 28.7
01:35 1019 30.09 848 25.04 -1.1 30 95 -1.9 28.6
01:40 1019 30.09 848 25.04 -1.1 30 95 -1.9 28.7
01:45 1019 30.09 848 25.04 -1.1 30 95 -1.8 28.7
01:50 1019 30.09 848 25.04 -1.1 30 95 -1.8 28.7
01:55 1019 30.09 848 25.04 -1.1 29.9 95 -1.8 28.7
02:00 1019 30.09 848 25.04 -1.2 29.9 95 -1.9 28.6
02:05 1019 30.09 848 25.04 -1.2 29.9 95 -1.9 28.6
02:10 1019 30.09 848 25.04 -1.2 29.9 95 -1.9 28.6
02:15 1019 30.09 848 25.04 -1.2 29.9 95 -1.9 28.6
02:20 1019 30.09 848 25.04 -1.2 29.9 95 -1.9 28.6
02:25 1019 30.09 848 25.04 -1.3 29.7 95 -2 28.5
02:30 1019 30.09 848 25.04 -1.3 29.7 95 -2 28.5
02:35 1019 30.09 848 25.04 -1.3 29.7 95 -2 28.5
02:40 1019 30.09 848 25.04 -1.3 29.6 95 -2 28.4
02:45 1019 30.09 848 25.04 -1.3 29.7 95 -2 28.4
02:50 1019 30.09 848 25.04 -1.3 29.7 95 -2 28.5
02:55 1019 30.09 848 25.04 -1.2 29.8 95 -1.9 28.5
03:00 1019 30.09 848 25.04 -1.3 29.7 95 -1.9 28.5
03:05 1019 30.09 848 25.04 -1.4 29.5 95 -2.1 28.3
03:10 1019 30.09 848 25.04 -1.4 29.5 95 -2.1 28.3
03:15 1019 30.09 848 25.04 -1.4 29.5 95 -2.1 28.3
03:20 1019 30.09 848 25.04 -1.4 29.5 95 -2 28.3
03:25 1019 30.09 848 25.04 -1.3 29.6 95 -2.1 28.3
03:30 1019 30.09 848 25.04 -1.3 29.6 95 -2 28.3
03:35 1019 30.09 848 25.04 -1.4 29.5 95 -2.1 28.3
03:40 1019 30.09 848 25.04 -1.4 29.5 95 -2.1 28.3
03:45 1019 30.09 848 25.04 -1.4 29.5 95 -2.1 28.2
03:50 1019 30.09 848 25.04 -1.5 29.3 95 -2.2 28.1
03:55 1019 30.09 848 25.04 -1.6 29.2 95 -2.3 27.9
04:00 1019 30.09 848 25.04 -1.6 29.1 95 -2.3 27.8
04:05 1019 30.09 848 25.04 -1.7 29 95 -2.3 27.8
04:10 1019 30.09 848 25.04 -1.7 28.9 95 -2.4 27.6
04:15 1019 30.09 848 25.04 -1.8 28.8 95 -2.5 27.5
04:20 1019 30.09 848 25.04 -1.9 28.6 95 -2.6 27.3
04:25 1019 30.09 848 25.04 -2 28.5 95 -2.7 27.2
04:30 1019 30.09 848 25.04 -2 28.4 95 -2.7 27.1
04:35 1019 30.09 848 25.04 -2.1 28.2 95 -2.8 26.9
04:40 1019 30.09 848 25.04 -2.2 28 95 -3 26.7
04:45 1019 30.09 848 25.04 -2.3 27.8 95 -3.1 26.4
04:50 1019 30.09 849 25.07 -2.5 27.6 95 -3.2 26.2
04:55 1019 30.09 849 25.07 -2.5 27.4 94 -3.3 26
05:00 1019 30.09 849 25.07 -2.6 27.3 94 -3.4 25.9
05:05 1019 30.09 849 25.07 -2.7 27.2 94 -3.5 25.8
05:10 1020 30.12 849 25.07 -2.7 27.2 94 -3.5 25.7
05:15 1020 30.12 849 25.07 -2.8 27 94 -3.6 25.6
05:20 1020 30.12 849 25.07 -2.9 26.8 94 -3.7 25.3
05:25 1020 30.12 849 25.07 -2.9 26.8 94 -3.7 25.3
05:30 1020 30.12 849 25.07 -2.9 26.8 94 -3.8 25.2
05:35 1020 30.12 849 25.07 -3 26.7 94 -3.8 25.1
05:40 1020 30.12 849 25.07 -3 26.6 94 -3.9 25
05:45 1020 30.12 849 25.07 -3.1 26.4 94 -4 24.8
05:50 1020 30.12 849 25.07 -3.2 26.2 93 -4.2 24.5
05:55 1020 30.12 849 25.07 -3.3 26 93 -4.3 24.3
06:00 1020 30.12 849 25.07 -3.4 25.9 93 -4.4 24.1
06:05 1020 30.12 849 25.07 -3.4 25.8 93 -4.4 24
06:10 1020 30.12 849 25.07 -3.5 25.7 93 -4.5 23.8
06:15 1020 30.12 849 25.07 -3.6 25.5 92 -4.7 23.6
06:20 1020 30.12 849 25.07 -3.7 25.3 92 -4.8 23.3
06:25 1020 30.12 849 25.07 -3.9 25 92 -5 23
06:30 1020 30.12 849 25.07 -3.9 25 92 -5.1 22.8
06:35 1020 30.12 849 25.07 -3.9 25 91 -5.2 22.7
06:40 1020 30.12 849 25.07 -3.9 25 90 -5.4 22.3
06:45 1020 30.12 849 25.07 -3.9 25 87 -5.7 21.7
06:50 1020 30.12 849 25.07 -3.8 25.1 84 -6.2 20.8
06:55 1020 30.12 849 25.07 -3.7 25.3 82 -6.4 20.5
07:00 1020 30.12 849 25.07 -3.5 25.6 79 -6.6 20.1
07:05 1020 30.12 849 25.07 -3.3 26 75 -7.1 19.3
07:10 1020 30.12 849 25.07 -3 26.5 72 -7.4 18.6
07:15 1020 30.12 850 25.1 -2.8 27 69 -7.7 18.1
07:20 1020 30.12 850 25.1 -2.6 27.4 65 -8.3 17
07:25 1020 30.12 850 25.1 -2.4 27.7 67 -7.8 18
07:30 1021 30.15 850 25.1 -2.4 27.6 68 -7.5 18.5
07:35 1021 30.15 850 25.1 -2.5 27.6 70 -7.1 19.1
07:40 1021 30.15 850 25.1 -2.9 26.8 74 -7 19.5
07:45 1021 30.15 850 25.1 -3 26.6 72 -7.3 18.8
07:50 1021 30.15 850 25.1 -2.9 26.7 74 -6.9 19.6
07:55 1021 30.15 850 25.1 -2.8 26.9 73 -6.9 19.5
08:00 1021 30.15 850 25.1 -2.5 27.5 71 -7 19.4
08:05 1021 30.15 850 25.1 -2.3 27.9 68 -7.5 18.5
08:10 1021 30.15 850 25.1 -2.6 27.3 74 -6.6 20.1
08:15 1021 30.15 850 25.1 -2.6 27.3 73 -6.8 19.7
08:20 1021 30.15 850 25.1 -2.7 27.2 74 -6.7 20
08:25 1021 30.15 850 25.1 -2.6 27.4 74 -6.6 20.2
08:30 1021 30.15 850 25.1 -1.3 29.6 65 -7 19.4
08:35 1021 30.15 850 25.1 -1.3 29.7 70 -6 21.2
08:40 1021 30.15 850 25.1 -0.8 30.6 62 -7.1 19.2
08:45 1021 30.15 850 25.1 -0.3 31.4 63 -6.6 20.2
08:50 1021 30.15 850 25.1 0.1 32.1 64 -6 21.1
08:55 1021 30.15 850 25.1 0.5 32.9 55 -7.5 18.5
09:00 1021 30.15 850 25.1 0.2 32.4 56 -7.4 18.6
09:05 1021 30.15 850 25.1 0.8 33.5 58 -6.6 20.1
09:10 1021 30.15 850 25.1 1 33.8 51 -8 17.6
09:15 1021 30.15 850 25.1 0.5 32.8 52 -8.4 16.9
09:20 1021 30.15 850 25.1 0.5 32.9 53 -8 17.6
09:25 1021 30.15 850 25.1 1.2 34.1 53 -7.5 18.5
09:30 1021 30.15 850 25.1 1.7 35.1 50 -7.7 18.1
09:35 1021 30.15 850 25.1 1.3 34.4 50 -7.9 17.7
09:40 1021 30.15 850 25.1 1.3 34.4 48 -8.6 16.5
09:45 1021 30.15 850 25.1 0.9 33.7 50 -8.2 17.2
09:50 1021 30.15 850 25.1 1 33.7 52 -7.8 18
09:55 1021 30.15 850 25.1 1.6 34.8 48 -8.3 17.1
10:00 1021 30.15 850 25.1 1.5 34.8 50 -7.7 18.1
10:05 1021 30.15 850 25.1 1.5 34.6 46 -8.9 15.9
10:10 1021 30.15 851 25.13 1.9 35.4 50 -7.6 18.4
10:15 1021 30.15 851 25.13 2.7 36.8 45 -8 17.6
10:20 1021 30.15 851 25.13 3 37.4 46 -7.5 18.6
10:25 1021 30.15 851 25.13 3.7 38.6 42 -8 17.6
10:30 1021 30.15 851 25.13 3.7 38.7 44 -7.4 18.7
10:35 1021 30.15 851 25.13 3.8 38.9 42 -7.8 17.9
10:40 1021 30.15 851 25.13 3.8 38.8 45 -7.1 19.1
10:45 1021 30.15 851 25.13 4.5 40 43 -7.2 19.1
10:50 1021 30.15 851 25.13 4.5 40.2 47 -5.9 21.3
10:55 1021 30.15 851 25.13 4.4 40 43 -7.1 19.3
11:00 1021 30.15 851 25.13 4.6 40.3 41 -7.4 18.6
11:05 1021 30.15 851 25.13 4.5 40 41 -7.6 18.4
11:10 1021 30.15 851 25.13 4.2 39.6 45 -6.8 19.8
11:15 1021 30.15 850 25.1 4.6 40.3 41 -7.6 18.2
11:20 1021 30.15 850 25.1 4.7 40.5 39 -8 17.6
11:25 1021 30.15 850 25.1 4.5 40.1 35 -9.7 14.6
11:30 1021 30.15 850 25.1 3.9 39 34 -10.6 12.9
11:35 1021 30.15 850 25.1 3.5 38.4 34 -10.8 12.6
11:40 1021 30.15 850 25.1 3.7 38.7 33 -10.9 12.3
11:45 1021 30.15 850 25.1 4 39.2 35 -10.3 13.5
11:50 1021 30.15 850 25.1 3.9 38.9 34 -10.7 12.8
11:55 1021 30.15 850 25.1 4.3 39.8 32 -11.1 12
12:00 1021 30.15 850 25.1 4.2 39.6 28 -12.6 9.3
12:05 1021 30.15 850 25.1 4.4 40 33 -10.6 12.9
12:10 1021 30.15 850 25.1 4.9 40.8 31 -11.1 12.1
12:15 1021 30.15 850 25.1 5.1 41.1 28 -12 10.4
12:20 1021 30.15 850 25.1 4.8 40.7 35 -9.4 15
12:25 1021 30.15 850 25.1 4.7 40.5 31 -10.9 12.4
12:30 1021 30.15 850 25.1 4.6 40.2 30 -11.4 11.5
12:35 1021 30.15 850 25.1 4.6 40.2 29 -12.1 10.3
12:40 1021 30.15 850 25.1 4.9 40.8 32 -10.6 12.9
12:45 1021 30.15 850 25.1 4.8 40.6 31 -11 12.1
12:50 1021 30.15 850 25.1 4.9 40.8 29 -11.8 10.8
12:55 1021 30.15 850 25.1 4.8 40.6 30 -11.2 11.8
13:00 1021 30.15 850 25.1 5.1 41.2 28 -12 10.4
13:05 1021 30.15 850 25.1 5.2 41.4 32 -10 13.9
13:10 1021 30.15 850 25.1 5.6 42 30 -10.9 12.4
13:15 1021 30.15 850 25.1 5.9 42.6 29 -10.8 12.6
13:20 1021 30.15 850 25.1 5.7 42.3 28 -11.4 11.5
13:25 1021 30.15 850 25.1 5.1 41.1 29 -11.6 11.1
13:30 1021 30.15 850 25.1 4.9 40.8 30 -11.1 12
13:35 1021 30.15 850 25.1 5.4 41.8 29 -11.3 11.6
13:40 1020 30.12 850 25.1 5.4 41.7 30 -10.9 12.4
13:45 1020 30.12 850 25.1 5.8 42.4 29 -11.1 12
13:50 1020 30.12 850 25.1 5.5 41.9 31 -10.5 13.1
13:55 1020 30.12 850 25.1 5.4 41.7 28 -11.9 10.6
14:00 1020 30.12 850 25.1 5.6 42.1 30 -10.7 12.7
14:05 1020 30.12 850 25.1 5.5 42 30 -10.5 13
14:10 1020 30.12 850 25.1 5.6 42.1 26 -12.3 9.8
14:15 1020 30.12 850 25.1 6 42.8 29 -10.9 12.4
14:20 1020 30.12 850 25.1 6 42.8 27 -11.8 10.8
14:25 1020 30.12 850 25.1 5.6 42 29 -11.3 11.7
14:30 1020 30.12 850 25.1 6 42.7 29 -10.8 12.5
14:35 1020 30.12 850 25.1 6.2 43.1 25 -12.3 9.8
14:40 1020 30.12 849 25.07 6 42.8 25 -12.7 9.1
14:45 1020 30.12 849 25.07 6 42.8 25 -12.8 9
14:50 1020 30.12 850 25.1 6.5 43.7 26 -11.8 10.7
14:55 1020 30.12 849 25.07 6.5 43.7 26 -11.7 10.9
15:00 1020 30.12 849 25.07 6.6 43.9 24 -12.4 9.6
15:05 1020 30.12 849 25.07 6.7 44 26 -11.4 11.5
15:10 1020 30.12 849 25.07 6.5 43.7 25 -12.1 10.2
15:15 1020 30.12 849 25.07 6.5 43.6 26 -11.8 10.7
15:20 1020 30.12 849 25.07 6.7 44 26 -11.5 11.3
15:25 1020 30.12 849 25.07 6.6 43.9 26 -11.4 11.5
15:30 1020 30.12 849 25.07 6.2 43.2 27 -11.3 11.7
15:35 1020 30.12 849 25.07 6.3 43.3 25 -12.2 10
15:40 1020 30.12 849 25.07 6.6 43.9 25 -12.3 9.8
15:45 1020 30.12 849 25.07 6.5 43.7 25 -12 10.4
15:50 1020 30.12 849 25.07 6.1 43 25 -12.6 9.4
15:55 1020 30.12 849 25.07 5.9 42.5 25 -12.8 9
16:00 1020 30.12 849 25.07 5.9 42.7 24 -13 8.7
16:05 1020 30.12 849 25.07 6.1 43.1 25 -12.7 9.1
16:10 1020 30.12 849 25.07 6.5 43.6 23 -13 8.6
16:15 1020 30.12 849 25.07 6.1 42.9 25 -12.5 9.5
16:20 1020 30.12 849 25.07 6.6 43.9 24 -12.4 9.7
16:25 1020 30.12 849 25.07 6.8 44.2 24 -12.4 9.6
16:30 1020 30.12 849 25.07 6.6 43.9 23 -13 8.6
16:35 1019 30.09 849 25.07 6.4 43.5 24 -13 8.6
16:40 1019 30.09 849 25.07 6.4 43.6 24 -12.6 9.3
16:45 1019 30.09 849 25.07 6.4 43.5 25 -12 10.3
16:50 1019 30.09 849 25.07 6.8 44.2 22 -13.3 8.1
16:55 1020 30.12 849 25.07 7.2 44.9 23 -12.4 9.6
17:00 1020 30.12 849 25.07 7.1 44.7 22 -13.2 8.3
17:05 1019 30.09 849 25.07 6.4 43.5 25 -12.5 9.6
17:10 1019 30.09 849 25.07 6.3 43.4 25 -12.3 9.8
17:15 1019 30.09 849 25.07 6.5 43.6 26 -11.6 11.1
17:20 1019 30.09 849 25.07 6.5 43.7 29 -10.4 13.2
17:25 1020 30.12 849 25.07 6.5 43.7 27 -11 12.1
17:30 1019 30.09 849 25.07 6.7 44 25 -12.3 9.9
17:35 1019 30.09 849 25.07 6.6 44 30 -9.6 14.7
17:40 1019 30.09 849 25.07 6.9 44.4 30 -9.4 15
17:45 1019 30.09 849 25.07 7.2 45 23 -12.4 9.7
17:50 1019 30.09 849 25.07 6.8 44.2 25 -11.7 10.9
17:55 1019 30.09 849 25.07 7.1 44.7 28 -10.1 13.9
18:00 1019 30.09 849 25.07 7.3 45.1 28 -10.3 13.5
18:05 1019 30.09 849 25.07 7.2 44.9 28 -10.2 13.6
18:10 1019 30.09 849 25.07 7.2 45 28 -10 14
18:15 1019 30.09 849 25.07 7.1 44.8 29 -9.7 14.5
18:20 1019 30.09 849 25.07 7.1 44.8 28 -10.2 13.7
18:25 1019 30.09 849 25.07 7.4 45.2 28 -10.2 13.6
18:30 1019 30.09 849 25.07 7 44.7 27 -10.9 12.3
18:35 1019 30.09 849 25.07 6.7 44 28 -10.7 12.8
18:40 1019 30.09 849 25.07 6.6 43.9 29 -10.3 13.4
18:45 1019 30.09 849 25.07 6.5 43.7 29 -10.2 13.6
18:50 1019 30.09 849 25.07 6.6 43.8 30 -9.9 14.3
18:55 1019 30.09 849 25.07 6.5 43.7 29 -10.1 13.7
19:00 1019 30.09 849 25.07 6.4 43.5 29 -10.5 13.2
19:05 1019 30.09 849 25.07 6.4 43.5 30 -10 14
19:10 1019 30.09 849 25.07 6.4 43.6 29 -10.2 13.7
19:15 1019 30.09 849 25.07 6.4 43.5 30 -10 14
19:20 1019 30.09 849 25.07 6.3 43.3 30 -10 13.9
19:25 1019 30.09 849 25.07 6.3 43.4 30 -9.8 14.3
19:30 1019 30.09 849 25.07 6.2 43.2 31 -9.8 14.4
19:35 1019 30.09 849 25.07 6.2 43.2 31 -9.7 14.5
19:40 1020 30.12 849 25.07 6.1 43 31 -9.8 14.4
19:45 1020 30.12 849 25.07 6 42.9 31 -10 14
19:50 1020 30.12 849 25.07 6 42.8 32 -9.4 15
19:55 1020 30.12 849 25.07 5.9 42.6 33 -9.3 15.3
20:00 1020 30.12 849 25.07 5.8 42.4 33 -9.2 15.4
20:05 1020 30.12 849 25.07 5.7 42.2 32 -9.7 14.5
20:10 1020 30.12 849 25.07 5.5 42 32 -9.7 14.5
20:15 1020 30.12 849 25.07 5.5 42 33 -9.6 14.6
20:20 1020 30.12 849 25.07 5.4 41.8 31 -10.4 13.3
20:25 1020 30.12 849 25.07 5.4 41.6 32 -10.2 13.6
20:30 1020 30.12 849 25.07 5.3 41.6 32 -10.1 13.9
20:35 1020 30.12 849 25.07 5.3 41.6 32 -10.2 13.6
20:40 1020 30.12 849 25.07 5.3 41.5 32 -9.9 14.1
20:45 1020 30.12 849 25.07 5.3 41.5 34 -9.4 15.1
20:50 1020 30.12 849 25.07 5.2 41.3 35 -8.9 16
20:55 1020 30.12 849 25.07 5.1 41.2 36 -8.7 16.3
21:00 1020 30.12 849 25.07 5.1 41.2 35 -9.2 15.4
21:05 1020 30.12 849 25.07 5 41 36 -8.9 15.9
21:10 1020 30.12 849 25.07 5 41 36 -8.9 16
21:15 1020 30.12 849 25.07 5 40.9 36 -8.9 16
21:20 1020 30.12 849 25.07 4.9 40.8 37 -8.6 16.5
21:25 1020 30.12 849 25.07 4.9 40.8 37 -8.6 16.6
21:30 1020 30.12 849 25.07 4.9 40.9 38 -8.3 17
21:35 1020 30.12 849 25.07 4.9 40.8 37 -8.5 16.8
21:40 1020 30.12 849 25.07 4.7 40.5 38 -8.5 16.8
21:45 1020 30.12 849 25.07 4.6 40.3 38 -8.4 16.9
21:50 1020 30.12 849 25.07 4.3 39.8 39 -8.5 16.8
21:55 1020 30.12 849 25.07 4.4 39.9 39 -8.3 17.1
22:00 1020 30.12 849 25.07 4.4 40 38 -8.8 16.1
22:05 1020 30.12 850 25.1 4.5 40 37 -8.9 16
22:10 1020 30.12 850 25.1 4.4 40 39 -8.4 16.9
22:15 1020 30.12 850 25.1 4.4 40 38 -8.7 16.3
22:20 1020 30.12 850 25.1 4.4 40 39 -8.4 16.8
22:25 1021 30.15 850 25.1 4.5 40 38 -8.6 16.6
22:30 1021 30.15 850 25.1 4.4 40 38 -8.6 16.5
22:35 1021 30.15 850 25.1 4.4 40 41 -7.8 18
22:40 1021 30.15 850 25.1 4.3 39.7 41 -7.8 17.9
22:45 1021 30.15 850 25.1 4.1 39.5 43 -7.4 18.6
22:50 1021 30.15 850 25.1 4.1 39.4 42 -7.8 18
22:55 1021 30.15 850 25.1 4 39.3 42 -7.8 18
23:00 1021 30.15 850 25.1 3.9 39.1 43 -7.5 18.6
23:05 1021 30.15 850 25.1 3.9 39 42 -7.7 18.1
23:10 1021 30.15 850 25.1 3.9 39 42 -7.9 17.8
23:15 1021 30.15 850 25.1 3.9 39.1 41 -8.1 17.4
23:20 1021 30.15 850 25.1 4 39.1 40 -8.3 17
23:25 1021 30.15 850 25.1 4 39.1 43 -7.5 18.5
23:30 1021 30.15 850 25.1 3.8 38.9 49 -5.9 21.3
23:35 1021 30.15 850 25.1 3.4 38.1 54 -5 22.9
23:40 1021 30.15 850 25.1 3 37.5 56 -4.9 23.2
23:45 1021 30.15 850 25.1 2.9 37.2 57 -4.8 23.4
23:50 1021 30.15 850 25.1 2.8 37 58 -4.7 23.5
23:55 1021 30.15 850 25.1 2.7 36.8 58 -4.7 23.6
24:00 1021 30.15 850 25.1 2.8 37.1 58 -4.7 23.5